Flight Track Log - Related Links

Times and Time Zones

All times are in EDT time to prevent confusion due to time zone crossing. See the AFR1068 flight status page for this flight to view local times or setup timezone preferences in your user account.

Time Position Orientation Groundspeed Altitude Reporting Facility
EDT Latitude Longitude Course Direction KTS MPH feet Rate Location/Type
Wed 07:28:00 AM 49.2174 2.3463 327° Northwest  Level Estimated
Wed 07:29:00 AM 49.2855 2.2781 327° Northwest  Level Estimated
Wed 07:30:00 AM 49.3536 2.2096 327° Northwest  Level Estimated
Wed 07:31:00 AM 49.4217 2.1410 327° Northwest  Level Estimated
Wed 07:32:00 AM 49.4897 2.0721 327° Northwest  Level Estimated
Wed 07:33:00 AM 49.5577 2.0031 327° Northwest  Level Estimated
Wed 07:34:00 AM 49.6256 1.9339 327° Northwest  Level Estimated
Wed 07:35:00 AM 49.6935 1.8645 327° Northwest  Level Estimated
Wed 07:36:00 AM 49.7613 1.7949 326° Northwest  Level Estimated
Wed 07:37:00 AM 49.8291 1.7251 326° Northwest  Level Estimated
Wed 07:38:00 AM 49.8969 1.6551 326° Northwest  Level Estimated
Wed 07:39:00 AM 49.9646 1.5849 326° Northwest  Level Estimated
Wed 07:40:00 AM 50.0323 1.5145 326° Northwest  Level Estimated
Wed 07:41:00 AM 50.0999 1.4439 326° Northwest  Level Estimated
Wed 07:42:00 AM 50.1675 1.3731 326° Northwest  Level Estimated
Wed 07:43:00 AM 50.2350 1.3021 326° Northwest  Level Estimated
Wed 07:44:00 AM 50.3025 1.2309 326° Northwest  Level Estimated
Wed 07:45:00 AM 50.3700 1.1595 326° Northwest  Level Estimated
Wed 07:46:00 AM 50.4374 1.0879 326° Northwest  Level Estimated
Wed 07:47:00 AM 50.5048 1.0161 326° Northwest  Level Estimated
Wed 07:48:00 AM 50.5721 0.9441 326° Northwest  Level Estimated
Wed 07:49:00 AM 50.6394 0.8719 326° Northwest  Level Estimated
Wed 07:50:00 AM 50.7066 0.7995 326° Northwest  Level Estimated
Wed 07:51:00 AM 50.7738 0.7269 326° Northwest  Level Estimated
Wed 07:52:00 AM 50.8410 0.6540 326° Northwest  Level Estimated
Wed 07:53:00 AM 50.9081 0.5810 326° Northwest  Level Estimated
Wed 07:54:00 AM 50.9751 0.5077 325° Northwest  Level Estimated
Wed 07:55:00 AM 51.0421 0.4342 325° Northwest  Level Estimated
Wed 07:56:00 AM 51.0939 0.3772 325° Northwest  Level Estimated
Wed 07:57:00 AM 51.1457 0.3201 325° Northwest  Level Estimated
Wed 07:58:00 AM 51.1975 0.2629 325° Northwest  Level Estimated
Wed 07:59:00 AM 51.2492 0.2055 325° Northwest  Level Estimated
Wed 08:00:00 AM 51.3010 0.1480 325° Northwest  Level Estimated
Wed 08:01:00 AM 51.3526 0.0904 325° Northwest  Level Estimated
Wed 08:02:00 AM 51.4043 0.0326 325° Northwest  Level Estimated
Wed 08:03:00 AM 51.4559 -0.0253 325° Northwest  Level Estimated
Wed 08:04:00 AM 51.5075 -0.0834 325° Northwest  Level Estimated
Wed 08:05:00 AM 51.5591 -0.1415 325° Northwest  Level Estimated
Wed 08:06:00 AM 51.6106 -0.1998 325° Northwest  Level Estimated
Wed 08:07:00 AM 51.6621 -0.2582 325° Northwest  Level Estimated
Wed 08:08:00 AM 51.7136 -0.3168 325° Northwest  Level Estimated
Wed 08:09:00 AM 51.7651 -0.3755 325° Northwest  Level Estimated
Wed 08:10:00 AM 51.8165 -0.4343 325° Northwest  Level Estimated
Wed 08:11:00 AM 51.8679 -0.4933 325° Northwest  Level Estimated
Wed 08:12:00 AM 51.9192 -0.5524 325° Northwest  Level Estimated
Wed 08:13:00 AM 51.9706 -0.6116 325° Northwest  Level Estimated
Wed 08:14:00 AM 52.0219 -0.6710 325° Northwest  Level Estimated
Wed 08:15:00 AM 52.0731 -0.7305 325° Northwest  Level Estimated
Wed 08:16:00 AM 52.1244 -0.7901 324° Northwest  Level Estimated
Wed 08:17:00 AM 52.1756 -0.8499 324° Northwest  Level Estimated
Wed 08:18:00 AM 52.2268 -0.9098 324° Northwest  Level Estimated
Wed 08:19:00 AM 52.2779 -0.9699 324° Northwest  Level Estimated
Wed 08:20:00 AM 52.3290 -1.0301 324° Northwest  Level Estimated
Wed 08:21:00 AM 52.3801 -1.0904 324° Northwest  Level Estimated
Wed 08:22:00 AM 52.4312 -1.1509 324° Northwest  Level Estimated
Wed 08:23:00 AM 52.4822 -1.2115 324° Northwest  Level Estimated
Wed 08:24:00 AM 52.5332 -1.2722 324° Northwest  Level Estimated
Wed 08:25:00 AM 52.5842 -1.3331 324° Northwest  Level Estimated
Wed 08:26:00 AM 52.6351 -1.3942 324° Northwest  Level Estimated
Wed 08:27:00 AM 52.6860 -1.4553 324° Northwest  Level Estimated
Wed 08:28:00 AM 52.7369 -1.5166 324° Northwest  Level Estimated
Wed 08:29:00 AM 52.7877 -1.5781 324° Northwest  Level Estimated
Wed 08:30:00 AM 52.8385 -1.6397 324° Northwest  Level Estimated
Wed 08:31:00 AM 52.8893 -1.7015 324° Northwest  Level Estimated
Wed 08:32:00 AM 52.9401 -1.7634 324° Northwest  Level Estimated
Wed 08:33:00 AM 52.9908 -1.8254 324° Northwest  Level Estimated
Wed 08:34:00 AM 53.0415 -1.8876 324° Northwest  Level Estimated
Wed 08:35:00 AM 53.0921 -1.9499 324° Northwest  Level Estimated
Wed 08:36:00 AM 53.1427 -2.0124 323° Northwest  Level Estimated
Wed 08:37:00 AM 53.1933 -2.0751 323° Northwest  Level Estimated
Wed 08:38:00 AM 53.2439 -2.1378 323° Northwest  Level Estimated
Wed 08:39:00 AM 53.2944 -2.2008 323° Northwest  Level Estimated
Wed 08:40:00 AM 53.3449 -2.2638 323° Northwest  Level Estimated
Wed 08:41:00 AM 53.3537 -2.2750 323° Northwest  Level Estimated
Wed 08:42:00 AM 53.3537 -2.2750 North  Level Estimated
Wed 08:43:00 AM 53.3537 -2.2750 North  Level Estimated
Wed 08:44:00 AM 53.3537 -2.2750 North  Level Estimated
Wed 08:45:00 AM 53.3537 -2.2750 North  Level Estimated
Wed 08:46:00 AM 53.3537 -2.2750 North  Level Estimated
Wed 08:47:00 AM 53.3537 -2.2750 North  Level Estimated
Wed 08:48:00 AM 53.3537 -2.2750 North  Level Estimated
Wed 08:49:00 AM 53.3537 -2.2750 North  Level Estimated
Wed 08:50:00 AM 53.3537 -2.2750 North  Level Estimated

Login

Don't have an account? Register now (free) for customized features, flight alerts, and more!